sensor_id;sensor_type;location;lat;lon;timestamp;temperature;humidity
66401;HTU21D;53211;45.040;38.788;2022-12-05T00:03:47;0.60;75.13
66401;HTU21D;53211;45.040;38.788;2022-12-05T00:06:14;0.64;75.11
66401;HTU21D;53211;45.040;38.788;2022-12-05T00:08:40;0.65;75.09
66401;HTU21D;53211;45.040;38.788;2022-12-05T00:11:14;0.63;75.16
66401;HTU21D;53211;45.040;38.788;2022-12-05T00:13:41;0.67;75.12
66401;HTU21D;53211;45.040;38.788;2022-12-05T00:16:15;0.69;75.01
66401;HTU21D;53211;45.040;38.788;2022-12-05T00:18:41;0.68;75.07
66401;HTU21D;53211;45.040;38.788;2022-12-05T00:21:12;0.69;75.08
66401;HTU21D;53211;45.040;38.788;2022-12-05T00:23:39;0.69;75.09
66401;HTU21D;53211;45.040;38.788;2022-12-05T00:26:05;0.73;75.01
66401;HTU21D;53211;45.040;38.788;2022-12-05T00:28:33;0.71;75.06
66401;HTU21D;53211;45.040;38.788;2022-12-05T00:31:07;0.72;75.07
66401;HTU21D;53211;45.040;38.788;2022-12-05T00:33:34;0.71;75.17
66401;HTU21D;53211;45.040;38.788;2022-12-05T00:36:02;0.73;75.12
66401;HTU21D;53211;45.040;38.788;2022-12-05T00:38:28;0.74;75.13
66401;HTU21D;53211;45.040;38.788;2022-12-05T00:40:54;0.73;75.09
66401;HTU21D;53211;45.040;38.788;2022-12-05T00:43:20;0.76;75.07
66401;HTU21D;53211;45.040;38.788;2022-12-05T00:45:46;0.74;75.09
66401;HTU21D;53211;45.040;38.788;2022-12-05T00:48:12;0.74;75.17
66401;HTU21D;53211;45.040;38.788;2022-12-05T00:50:38;0.73;75.12
66401;HTU21D;53211;45.040;38.788;2022-12-05T00:53:04;0.73;75.15
66401;HTU21D;53211;45.040;38.788;2022-12-05T00:55:30;0.74;118.99
66401;HTU21D;53211;45.040;38.788;2022-12-05T00:57:56;0.73;75.12
66401;HTU21D;53211;45.040;38.788;2022-12-05T01:00:22;0.74;75.14
66401;HTU21D;53211;45.040;38.788;2022-12-05T01:02:48;0.75;75.15
66401;HTU21D;53211;45.040;38.788;2022-12-05T01:05:14;0.75;75.02
66401;HTU21D;53211;45.040;38.788;2022-12-05T01:07:40;0.74;75.04
66401;HTU21D;53211;45.040;38.788;2022-12-05T01:10:06;0.75;74.99
66401;HTU21D;53211;45.040;38.788;2022-12-05T01:12:32;0.74;75.09
66401;HTU21D;53211;45.040;38.788;2022-12-05T01:14:58;0.72;75.04
66401;HTU21D;53211;45.040;38.788;2022-12-05T01:17:24;0.72;75.04
66401;HTU21D;53211;45.040;38.788;2022-12-05T01:19:50;0.71;74.99
66401;HTU21D;53211;45.040;38.788;2022-12-05T01:22:16;0.69;75.07
66401;HTU21D;53211;45.040;38.788;2022-12-05T01:24:44;0.68;74.99
66401;HTU21D;53211;45.040;38.788;2022-12-05T01:27:10;0.68;75.08
66401;HTU21D;53211;45.040;38.788;2022-12-05T01:29:36;0.71;75.03
66401;HTU21D;53211;45.040;38.788;2022-12-05T01:32:02;0.71;75.01
66401;HTU21D;53211;45.040;38.788;2022-12-05T01:34:31;0.67;75.09
66401;HTU21D;53211;45.040;38.788;2022-12-05T01:36:57;0.68;75.09
66401;HTU21D;53211;45.040;38.788;2022-12-05T01:39:23;0.71;75.02
66401;HTU21D;53211;45.040;38.788;2022-12-05T01:41:49;0.66;75.03
66401;HTU21D;53211;45.040;38.788;2022-12-05T01:46:46;0.64;75.02
66401;HTU21D;53211;45.040;38.788;2022-12-05T01:49:30;0.66;75.02
66401;HTU21D;53211;45.040;38.788;2022-12-05T01:52:28;0.61;75.12
66401;HTU21D;53211;45.040;38.788;2022-12-05T01:54:59;0.62;75.10
66401;HTU21D;53211;45.040;38.788;2022-12-05T01:57:29;0.63;75.06
66401;HTU21D;53211;45.040;38.788;2022-12-05T02:00:00;0.61;75.09
66401;HTU21D;53211;45.040;38.788;2022-12-05T02:02:40;0.61;75.12
66401;HTU21D;53211;45.040;38.788;2022-12-05T02:05:36;0.60;75.09
66401;HTU21D;53211;45.040;38.788;2022-12-05T02:08:09;0.62;75.09
66401;HTU21D;53211;45.040;38.788;2022-12-05T02:10:47;0.61;75.12
66401;HTU21D;53211;45.040;38.788;2022-12-05T02:20:57;0.59;75.12
66401;HTU21D;53211;45.040;38.788;2022-12-05T02:32:42;0.57;75.17
66401;HTU21D;53211;45.040;38.788;2022-12-05T02:46:13;0.51;75.26
66401;HTU21D;53211;45.040;38.788;2022-12-05T02:48:44;0.52;75.25
66401;HTU21D;53211;45.040;38.788;2022-12-05T02:51:13;0.52;75.31
66401;HTU21D;53211;45.040;38.788;2022-12-05T02:53:41;0.51;75.34
66401;HTU21D;53211;45.040;38.788;2022-12-05T02:56:09;0.51;75.34
66401;HTU21D;53211;45.040;38.788;2022-12-05T02:58:40;0.52;75.31
66401;HTU21D;53211;45.040;38.788;2022-12-05T03:01:09;0.52;75.31
66401;HTU21D;53211;45.040;38.788;2022-12-05T03:03:35;0.50;75.33
66401;HTU21D;53211;45.040;38.788;2022-12-05T03:06:07;0.46;75.27
66401;HTU21D;53211;45.040;38.788;2022-12-05T03:08:46;0.45;75.31
66401;HTU21D;53211;45.040;38.788;2022-12-05T03:11:14;0.42;75.33
66401;HTU21D;53211;45.040;38.788;2022-12-05T03:13:50;0.39;75.33
66401;HTU21D;53211;45.040;38.788;2022-12-05T03:18:58;0.35;75.44
66401;HTU21D;53211;45.040;38.788;2022-12-05T03:21:38;0.34;75.47
66401;HTU21D;53211;45.040;38.788;2022-12-05T03:24:08;0.31;75.57
66401;HTU21D;53211;45.040;38.788;2022-12-05T03:29:50;0.25;75.64
66401;HTU21D;53211;45.040;38.788;2022-12-05T03:32:33;0.23;75.66
66401;HTU21D;53211;45.040;38.788;2022-12-05T03:35:10;0.00;75.76
66401;HTU21D;53211;45.040;38.788;2022-12-05T03:38:00;0.17;75.77
66401;HTU21D;53211;45.040;38.788;2022-12-05T03:43:26;0.08;76.00
66401;HTU21D;53211;45.040;38.788;2022-12-05T03:45:55;0.08;75.92
66401;HTU21D;53211;45.040;38.788;2022-12-05T03:48:34;0.04;75.88
66401;HTU21D;53211;45.040;38.788;2022-12-05T03:51:04;-0.01;75.90
66401;HTU21D;53211;45.040;38.788;2022-12-05T03:53:35;-0.06;75.89
66401;HTU21D;53211;45.040;38.788;2022-12-05T03:56:08;-0.12;75.95
66401;HTU21D;53211;45.040;38.788;2022-12-05T03:58:47;-0.16;76.08
66401;HTU21D;53211;45.040;38.788;2022-12-05T04:01:17;-0.20;76.31
66401;HTU21D;53211;45.040;38.788;2022-12-05T04:03:52;-0.24;76.34
66401;HTU21D;53211;45.040;38.788;2022-12-05T04:06:32;-0.26;76.33
66401;HTU21D;53211;45.040;38.788;2022-12-05T04:09:36;-0.27;76.51
66401;HTU21D;53211;45.040;38.788;2022-12-05T04:12:16;-0.27;76.51
66401;HTU21D;53211;45.040;38.788;2022-12-05T04:14:47;-0.30;76.73
66401;HTU21D;53211;45.040;38.788;2022-12-05T04:19:53;-0.32;76.64
66401;HTU21D;53211;45.040;38.788;2022-12-05T04:22:42;-0.31;76.79
66401;HTU21D;53211;45.040;38.788;2022-12-05T04:25:12;-0.35;76.86
66401;HTU21D;53211;45.040;38.788;2022-12-05T04:30:47;-0.37;76.97
66401;HTU21D;53211;45.040;38.788;2022-12-05T04:33:25;-0.35;77.02
66401;HTU21D;53211;45.040;38.788;2022-12-05T04:38:44;-0.26;76.98
66401;HTU21D;53211;45.040;38.788;2022-12-05T04:41:16;-0.25;76.91
66401;HTU21D;53211;45.040;38.788;2022-12-05T04:43:46;-0.25;76.82
66401;HTU21D;53211;45.040;38.788;2022-12-05T04:46:16;-0.29;76.86
66401;HTU21D;53211;45.040;38.788;2022-12-05T04:48:47;-0.32;76.95
66401;HTU21D;53211;45.040;38.788;2022-12-05T04:51:17;-0.37;76.89
66401;HTU21D;53211;45.040;38.788;2022-12-05T04:53:45;-0.40;76.96
66401;HTU21D;53211;45.040;38.788;2022-12-05T04:56:15;-0.45;77.05
66401;HTU21D;53211;45.040;38.788;2022-12-05T04:58:44;-0.49;76.97
66401;HTU21D;53211;45.040;38.788;2022-12-05T05:01:47;-0.53;77.21
66401;HTU21D;53211;45.040;38.788;2022-12-05T05:04:20;-0.55;77.23
66401;HTU21D;53211;45.040;38.788;2022-12-05T05:06:48;-0.58;77.12
66401;HTU21D;53211;45.040;38.788;2022-12-05T05:09:14;-0.59;77.15
66401;HTU21D;53211;45.040;38.788;2022-12-05T05:11:40;-0.60;77.60
66401;HTU21D;53211;45.040;38.788;2022-12-05T05:14:06;-0.57;77.72
66401;HTU21D;53211;45.040;38.788;2022-12-05T05:16:38;-0.53;77.72
66401;HTU21D;53211;45.040;38.788;2022-12-05T05:19:05;-0.45;77.95
66401;HTU21D;53211;45.040;38.788;2022-12-05T05:21:36;-0.39;77.91
66401;HTU21D;53211;45.040;38.788;2022-12-05T05:24:03;-0.29;77.85
66401;HTU21D;53211;45.040;38.788;2022-12-05T05:26:33;-0.22;77.82
66401;HTU21D;53211;45.040;38.788;2022-12-05T05:28:59;-0.15;77.76
66401;HTU21D;53211;45.040;38.788;2022-12-05T05:31:26;-0.07;77.69
66401;HTU21D;53211;45.040;38.788;2022-12-05T05:33:54;0.02;77.63
66401;HTU21D;53211;45.040;38.788;2022-12-05T05:36:21;0.07;77.79
66401;HTU21D;53211;45.040;38.788;2022-12-05T05:38:51;0.14;77.62
66401;HTU21D;53211;45.040;38.788;2022-12-05T05:41:22;0.19;77.58
66401;HTU21D;53211;45.040;38.788;2022-12-05T05:43:49;0.25;77.57
66401;HTU21D;53211;45.040;38.788;2022-12-05T05:46:20;0.32;77.46
66401;HTU21D;53211;45.040;38.788;2022-12-05T05:48:46;0.38;77.37
66401;HTU21D;53211;45.040;38.788;2022-12-05T05:51:13;0.42;77.29
66401;HTU21D;53211;45.040;38.788;2022-12-05T05:53:40;0.46;77.28
66401;HTU21D;53211;45.040;38.788;2022-12-05T05:56:13;0.51;77.23
66401;HTU21D;53211;45.040;38.788;2022-12-05T05:58:39;0.58;77.15
66401;HTU21D;53211;45.040;38.788;2022-12-05T06:01:14;0.61;76.92
66401;HTU21D;53211;45.040;38.788;2022-12-05T06:03:40;0.58;76.83
66401;HTU21D;53211;45.040;38.788;2022-12-05T06:06:09;0.54;76.82
66401;HTU21D;53211;45.040;38.788;2022-12-05T06:08:38;0.52;76.86
66401;HTU21D;53211;45.040;38.788;2022-12-05T06:11:08;0.51;76.95
66401;HTU21D;53211;45.040;38.788;2022-12-05T06:13:35;0.50;77.02
66401;HTU21D;53211;45.040;38.788;2022-12-05T06:16:03;0.52;77.01
66401;HTU21D;53211;45.040;38.788;2022-12-05T06:18:29;0.53;76.98
66401;HTU21D;53211;45.040;38.788;2022-12-05T06:20:56;0.51;76.92
66401;HTU21D;53211;45.040;38.788;2022-12-05T06:23:23;0.53;76.91
66401;HTU21D;53211;45.040;38.788;2022-12-05T06:25:54;0.51;76.89
66401;HTU21D;53211;45.040;38.788;2022-12-05T06:28:23;0.00;76.92
66401;HTU21D;53211;45.040;38.788;2022-12-05T06:30:49;0.52;76.94
66401;HTU21D;53211;45.040;38.788;2022-12-05T06:33:15;0.53;76.95
66401;HTU21D;53211;45.040;38.788;2022-12-05T06:35:42;0.58;76.87
66401;HTU21D;53211;45.040;38.788;2022-12-05T06:38:09;0.55;76.93
66401;HTU21D;53211;45.040;38.788;2022-12-05T06:40:39;0.60;76.91
66401;HTU21D;53211;45.040;38.788;2022-12-05T06:43:05;0.62;77.02
66401;HTU21D;53211;45.040;38.788;2022-12-05T06:45:32;0.65;77.07
66401;HTU21D;53211;45.040;38.788;2022-12-05T06:47:58;0.73;77.16
66401;HTU21D;53211;45.040;38.788;2022-12-05T06:50:24;0.81;77.08
66401;HTU21D;53211;45.040;38.788;2022-12-05T06:52:50;0.90;76.98
66401;HTU21D;53211;45.040;38.788;2022-12-05T06:55:16;1.02;77.01
66401;HTU21D;53211;45.040;38.788;2022-12-05T06:57:42;1.11;77.05
66401;HTU21D;53211;45.040;38.788;2022-12-05T07:00:08;1.25;76.82
66401;HTU21D;53211;45.040;38.788;2022-12-05T07:02:53;1.37;76.50
66401;HTU21D;53211;45.040;38.788;2022-12-05T07:05:19;1.45;76.31
66401;HTU21D;53211;45.040;38.788;2022-12-05T07:07:45;1.54;76.41
66401;HTU21D;53211;45.040;38.788;2022-12-05T07:10:11;1.62;76.28
66401;HTU21D;53211;45.040;38.788;2022-12-05T07:12:37;1.65;75.99
66401;HTU21D;53211;45.040;38.788;2022-12-05T07:15:04;1.66;75.77
66401;HTU21D;53211;45.040;38.788;2022-12-05T07:17:30;1.64;75.60
66401;HTU21D;53211;45.040;38.788;2022-12-05T07:19:59;1.67;75.78
66401;HTU21D;53211;45.040;38.788;2022-12-05T07:22:25;1.75;75.83
66401;HTU21D;53211;45.040;38.788;2022-12-05T07:24:51;1.80;75.53
66401;HTU21D;53211;45.040;38.788;2022-12-05T07:27:17;1.90;75.86
66401;HTU21D;53211;45.040;38.788;2022-12-05T07:29:43;2.00;75.72
66401;HTU21D;53211;45.040;38.788;2022-12-05T07:32:09;2.09;75.34
66401;HTU21D;53211;45.040;38.788;2022-12-05T07:34:35;2.16;75.35
66401;HTU21D;53211;45.040;38.788;2022-12-05T07:37:03;2.22;75.00
66401;HTU21D;53211;45.040;38.788;2022-12-05T07:39:32;2.23;74.74
66401;HTU21D;53211;45.040;38.788;2022-12-05T07:41:58;2.26;74.39
66401;HTU21D;53211;45.040;38.788;2022-12-05T07:44:24;2.29;74.56
66401;HTU21D;53211;45.040;38.788;2022-12-05T07:46:50;2.35;74.74
66401;HTU21D;53211;45.040;38.788;2022-12-05T07:49:16;2.38;74.25
66401;HTU21D;53211;45.040;38.788;2022-12-05T07:51:42;2.42;74.03
66401;HTU21D;53211;45.040;38.788;2022-12-05T07:54:08;2.46;0.00
66401;HTU21D;53211;45.040;38.788;2022-12-05T07:56:34;2.53;74.11
66401;HTU21D;53211;45.040;38.788;2022-12-05T07:59:00;2.60;74.24
66401;HTU21D;53211;45.040;38.788;2022-12-05T08:01:27;2.70;74.30
66401;HTU21D;53211;45.040;38.788;2022-12-05T08:03:56;2.81;74.40
66401;HTU21D;53211;45.040;38.788;2022-12-05T08:06:26;2.90;73.56
66401;HTU21D;53211;45.040;38.788;2022-12-05T08:08:52;2.96;73.38
66401;HTU21D;53211;45.040;38.788;2022-12-05T08:11:27;3.01;73.57
66401;HTU21D;53211;45.040;38.788;2022-12-05T08:13:53;3.08;73.50
66401;HTU21D;53211;45.040;38.788;2022-12-05T08:16:27;3.16;73.41
66401;HTU21D;53211;45.040;38.788;2022-12-05T08:18:54;3.19;72.81
66401;HTU21D;53211;45.040;38.788;2022-12-05T08:21:21;3.20;72.87
66401;HTU21D;53211;45.040;38.788;2022-12-05T08:23:47;3.23;72.80
66401;HTU21D;53211;45.040;38.788;2022-12-05T08:26:19;3.25;72.92
66401;HTU21D;53211;45.040;38.788;2022-12-05T08:28:50;3.29;72.94
66401;HTU21D;53211;45.040;38.788;2022-12-05T08:31:18;3.34;72.56
66401;HTU21D;53211;45.040;38.788;2022-12-05T08:33:44;3.32;72.43
66401;HTU21D;53211;45.040;38.788;2022-12-05T08:36:12;3.33;72.42
66401;HTU21D;53211;45.040;38.788;2022-12-05T08:38:40;3.36;72.51
66401;HTU21D;53211;45.040;38.788;2022-12-05T08:41:09;3.42;72.60
66401;HTU21D;53211;45.040;38.788;2022-12-05T08:43:35;3.46;72.19
66401;HTU21D;53211;45.040;38.788;2022-12-05T08:46:02;3.49;72.45
66401;HTU21D;53211;45.040;38.788;2022-12-05T08:48:31;3.56;72.21
66401;HTU21D;53211;45.040;38.788;2022-12-05T08:50:58;3.57;71.49
66401;HTU21D;53211;45.040;38.788;2022-12-05T08:53:25;3.53;70.99
66401;HTU21D;53211;45.040;38.788;2022-12-05T08:55:51;3.46;71.11
66401;HTU21D;53211;45.040;38.788;2022-12-05T08:58:17;3.36;71.21
66401;HTU21D;53211;45.040;38.788;2022-12-05T09:00:43;3.27;71.41
66401;HTU21D;53211;45.040;38.788;2022-12-05T09:03:10;3.23;71.64
66401;HTU21D;53211;45.040;38.788;2022-12-05T09:05:36;3.18;71.68
66401;HTU21D;53211;45.040;38.788;2022-12-05T09:08:02;3.14;71.35
66401;HTU21D;53211;45.040;38.788;2022-12-05T09:10:29;3.10;71.63
66401;HTU21D;53211;45.040;38.788;2022-12-05T09:12:55;3.08;71.58
66401;HTU21D;53211;45.040;38.788;2022-12-05T09:15:21;3.03;71.87
66401;HTU21D;53211;45.040;38.788;2022-12-05T09:17:47;3.01;71.96
66401;HTU21D;53211;45.040;38.788;2022-12-05T09:20:13;3.02;72.34
66401;HTU21D;53211;45.040;38.788;2022-12-05T09:22:40;3.06;72.43
66401;HTU21D;53211;45.040;38.788;2022-12-05T09:25:06;3.11;71.86
66401;HTU21D;53211;45.040;38.788;2022-12-05T09:27:33;3.14;72.02
66401;HTU21D;53211;45.040;38.788;2022-12-05T09:29:59;3.13;71.84
66401;HTU21D;53211;45.040;38.788;2022-12-05T09:32:25;3.13;71.94
66401;HTU21D;53211;45.040;38.788;2022-12-05T09:34:51;3.13;71.87
66401;HTU21D;53211;45.040;38.788;2022-12-05T09:37:17;3.16;71.85
66401;HTU21D;53211;45.040;38.788;2022-12-05T09:39:44;3.18;72.22
66401;HTU21D;53211;45.040;38.788;2022-12-05T11:44:59;5.26;69.45
66401;HTU21D;53211;45.040;38.788;2022-12-05T11:50:58;5.89;69.52
66401;HTU21D;53211;45.040;38.788;2022-12-05T11:56:28;6.80;67.93
66401;HTU21D;53211;45.040;38.788;2022-12-05T12:07:08;7.19;65.37
66401;HTU21D;53211;45.040;38.788;2022-12-05T12:09:47;7.30;64.89
66401;HTU21D;53211;45.040;38.788;2022-12-05T12:12:23;7.49;65.59
66401;HTU21D;53211;45.040;38.788;2022-12-05T12:23:25;7.32;63.84
66401;HTU21D;53211;45.040;38.788;2022-12-05T12:26:13;6.89;0.00
66401;HTU21D;53211;45.040;38.788;2022-12-05T12:28:45;6.64;65.43
66401;HTU21D;53211;45.040;38.788;2022-12-05T12:33:48;6.13;65.93
66401;HTU21D;53211;45.040;38.788;2022-12-05T12:39:14;5.72;66.13
66401;HTU21D;53211;45.040;38.788;2022-12-05T12:41:57;5.54;66.43
66401;HTU21D;53211;45.040;38.788;2022-12-05T12:47:19;5.23;66.51
66401;HTU21D;53211;45.040;38.788;2022-12-05T12:52:35;4.96;66.60
66401;HTU21D;53211;45.040;38.788;2022-12-05T13:01:00;4.56;67.01
66401;HTU21D;53211;45.040;38.788;2022-12-05T13:03:40;4.44;67.20
66401;HTU21D;53211;45.040;38.788;2022-12-05T13:11:49;4.08;67.47
66401;HTU21D;53211;45.040;38.788;2022-12-05T13:14:18;4.00;67.08
66401;HTU21D;53211;45.040;38.788;2022-12-05T13:16:48;3.97;67.61
66401;HTU21D;53211;45.040;38.788;2022-12-05T13:19:27;3.87;67.47
66401;HTU21D;53211;45.040;38.788;2022-12-05T13:21:56;3.80;67.49
66401;HTU21D;53211;45.040;38.788;2022-12-05T13:24:26;3.76;67.51
66401;HTU21D;53211;45.040;38.788;2022-12-05T13:26:52;3.68;67.43
66401;HTU21D;53211;45.040;38.788;2022-12-05T13:29:48;3.62;67.59
66401;HTU21D;53211;45.040;38.788;2022-12-05T13:32:42;3.53;67.70
66401;HTU21D;53211;45.040;38.788;2022-12-05T13:35:16;3.47;67.69
66401;HTU21D;53211;45.040;38.788;2022-12-05T13:38:02;3.41;67.68
66401;HTU21D;53211;45.040;38.788;2022-12-05T13:40:51;3.36;67.77
66401;HTU21D;53211;45.040;38.788;2022-12-05T13:43:46;3.29;67.86
66401;HTU21D;53211;45.040;38.788;2022-12-05T13:46:29;3.25;67.80
66401;HTU21D;53211;45.040;38.788;2022-12-05T13:49:24;3.18;67.76
66401;HTU21D;53211;45.040;38.788;2022-12-05T13:51:53;3.16;68.00
66401;HTU21D;53211;45.040;38.788;2022-12-05T13:54:24;3.11;67.97
66401;HTU21D;53211;45.040;38.788;2022-12-05T13:56:56;3.04;68.06
66401;HTU21D;53211;45.040;38.788;2022-12-05T14:15:34;2.72;68.50
66401;HTU21D;53211;45.040;38.788;2022-12-05T14:30:04;2.46;68.84
66401;HTU21D;53211;45.040;38.788;2022-12-05T14:32:37;2.45;68.89
66401;HTU21D;53211;45.040;38.788;2022-12-05T14:37:56;2.39;69.04
66401;HTU21D;53211;45.040;38.788;2022-12-05T14:41:09;2.37;69.06
66401;HTU21D;53211;45.040;38.788;2022-12-05T14:43:32;2.32;69.20
66401;HTU21D;53211;45.040;38.788;2022-12-05T14:46:02;2.29;69.22
66401;HTU21D;53211;45.040;38.788;2022-12-05T14:48:32;2.26;69.29
66401;HTU21D;53211;45.040;38.788;2022-12-05T14:51:00;2.23;69.40
66401;HTU21D;53211;45.040;38.788;2022-12-05T14:56:04;2.15;69.48
66401;HTU21D;53211;45.040;38.788;2022-12-05T15:06:26;2.02;69.64
66401;HTU21D;53211;45.040;38.788;2022-12-05T15:08:55;1.98;69.81
66401;HTU21D;53211;45.040;38.788;2022-12-05T15:11:23;1.95;69.82
66401;HTU21D;53211;45.040;38.788;2022-12-05T15:14:01;1.91;69.90
66401;HTU21D;53211;45.040;38.788;2022-12-05T15:16:33;1.91;69.96
66401;HTU21D;53211;45.040;38.788;2022-12-05T15:19:04;1.88;70.01
66401;HTU21D;53211;45.040;38.788;2022-12-05T15:21:37;1.85;70.03
66401;HTU21D;53211;45.040;38.788;2022-12-05T15:24:12;1.85;70.07
66401;HTU21D;53211;45.040;38.788;2022-12-05T15:31:43;1.77;70.32
66401;HTU21D;53211;45.040;38.788;2022-12-05T15:36:55;1.75;70.39
66401;HTU21D;53211;45.040;38.788;2022-12-05T15:39:24;1.72;70.48
66401;HTU21D;53211;45.040;38.788;2022-12-05T15:41:51;1.70;70.44
66401;HTU21D;53211;45.040;38.788;2022-12-05T15:44:19;1.69;70.45
66401;HTU21D;53211;45.040;38.788;2022-12-05T15:46:53;1.66;70.57
66401;HTU21D;53211;45.040;38.788;2022-12-05T15:49:22;1.62;70.53
66401;HTU21D;53211;45.040;38.788;2022-12-05T15:51:56;1.60;70.52
66401;HTU21D;53211;45.040;38.788;2022-12-05T15:54:31;1.52;70.65
66401;HTU21D;53211;45.040;38.788;2022-12-05T15:59:47;1.43;70.92
66401;HTU21D;53211;45.040;38.788;2022-12-05T16:02:41;1.39;70.89
66401;HTU21D;53211;45.040;38.788;2022-12-05T16:05:21;1.35;71.17
66401;HTU21D;53211;45.040;38.788;2022-12-05T16:07:50;1.33;71.31
66401;HTU21D;53211;45.040;38.788;2022-12-05T16:10:17;1.31;71.19
66401;HTU21D;53211;45.040;38.788;2022-12-05T16:12:48;1.24;71.38
66401;HTU21D;53211;45.040;38.788;2022-12-05T16:15:32;1.22;71.40
66401;HTU21D;53211;45.040;38.788;2022-12-05T16:18:01;1.19;71.45
66401;HTU21D;53211;45.040;38.788;2022-12-05T16:20:35;1.16;71.55
66401;HTU21D;53211;45.040;38.788;2022-12-05T16:23:04;1.12;71.68
66401;HTU21D;53211;45.040;38.788;2022-12-05T16:25:35;1.10;71.68
66401;HTU21D;53211;45.040;38.788;2022-12-05T16:30:36;1.06;71.92
66401;HTU21D;53211;45.040;38.788;2022-12-05T16:33:22;1.02;72.09
66401;HTU21D;53211;45.040;38.788;2022-12-05T16:35:49;0.96;72.56
66401;HTU21D;53211;45.040;38.788;2022-12-05T16:41:02;0.97;72.28
66401;HTU21D;53211;45.040;38.788;2022-12-05T16:48:42;0.84;72.51
66401;HTU21D;53211;45.040;38.788;2022-12-05T16:51:23;0.83;72.54
66401;HTU21D;53211;45.040;38.788;2022-12-05T16:53:54;0.80;72.62
66401;HTU21D;53211;45.040;38.788;2022-12-05T16:56:31;0.77;72.64
66401;HTU21D;53211;45.040;38.788;2022-12-05T16:59:05;0.76;72.84
66401;HTU21D;53211;45.040;38.788;2022-12-05T17:01:31;0.73;72.83
66401;HTU21D;53211;45.040;38.788;2022-12-05T17:03:58;0.68;72.87
66401;HTU21D;53211;45.040;38.788;2022-12-05T17:06:25;0.65;73.35
66401;HTU21D;53211;45.040;38.788;2022-12-05T17:08:52;0.65;73.12
66401;HTU21D;53211;45.040;38.788;2022-12-05T17:11:24;0.63;73.32
66401;HTU21D;53211;45.040;38.788;2022-12-05T17:13:52;0.60;73.17
66401;HTU21D;53211;45.040;38.788;2022-12-05T17:16:19;0.57;73.09
66401;HTU21D;53211;45.040;38.788;2022-12-05T17:18:46;0.53;73.41
66401;HTU21D;53211;45.040;38.788;2022-12-05T17:21:20;0.51;73.71
66401;HTU21D;53211;45.040;38.788;2022-12-05T17:23:47;0.50;73.49
66401;HTU21D;53211;45.040;38.788;2022-12-05T17:26:18;0.49;73.96
66401;HTU21D;53211;45.040;38.788;2022-12-05T17:28:45;0.50;74.27
66401;HTU21D;53211;45.040;38.788;2022-12-05T17:31:14;0.50;74.02
66401;HTU21D;53211;45.040;38.788;2022-12-05T17:33:42;0.50;73.80
66401;HTU21D;53211;45.040;38.788;2022-12-05T17:36:09;0.48;74.11
66401;HTU21D;53211;45.040;38.788;2022-12-05T17:38:35;0.48;74.06
66401;HTU21D;53211;45.040;38.788;2022-12-05T17:41:01;0.49;74.29
66401;HTU21D;53211;45.040;38.788;2022-12-05T17:43:27;0.47;74.33
66401;HTU21D;53211;45.040;38.788;2022-12-05T17:45:58;0.46;74.30
66401;HTU21D;53211;45.040;38.788;2022-12-05T17:48:25;0.46;74.39
66401;HTU21D;53211;45.040;38.788;2022-12-05T17:50:54;0.44;74.47
66401;HTU21D;53211;45.040;38.788;2022-12-05T17:53:24;0.43;74.36
66401;HTU21D;53211;45.040;38.788;2022-12-05T17:55:50;0.42;74.38
66401;HTU21D;53211;45.040;38.788;2022-12-05T17:58:20;0.36;74.89
66401;HTU21D;53211;45.040;38.788;2022-12-05T18:00:47;0.38;74.96
66401;HTU21D;53211;45.040;38.788;2022-12-05T18:03:17;0.38;74.73
66401;HTU21D;53211;45.040;38.788;2022-12-05T18:05:47;0.38;74.72
66401;HTU21D;53211;45.040;38.788;2022-12-05T18:08:14;0.37;74.89
66401;HTU21D;53211;45.040;38.788;2022-12-05T18:10:44;0.38;75.02
66401;HTU21D;53211;45.040;38.788;2022-12-05T18:13:14;0.38;75.24
66401;HTU21D;53211;45.040;38.788;2022-12-05T18:15:42;0.42;75.08
66401;HTU21D;53211;45.040;38.788;2022-12-05T18:18:15;0.42;75.04
66401;HTU21D;53211;45.040;38.788;2022-12-05T18:20:44;0.39;75.12
66401;HTU21D;53211;45.040;38.788;2022-12-05T18:23:10;0.39;75.46
66401;HTU21D;53211;45.040;38.788;2022-12-05T18:25:38;0.40;75.21
66401;HTU21D;53211;45.040;38.788;2022-12-05T18:28:06;0.39;75.17
66401;HTU21D;53211;45.040;38.788;2022-12-05T18:30:35;0.40;75.27
66401;HTU21D;53211;45.040;38.788;2022-12-05T18:33:02;0.38;75.74
66401;HTU21D;53211;45.040;38.788;2022-12-05T18:35:31;0.42;75.58
66401;HTU21D;53211;45.040;38.788;2022-12-05T18:38:09;0.43;75.60
66401;HTU21D;53211;45.040;38.788;2022-12-05T18:40:36;0.43;75.59
66401;HTU21D;53211;45.040;38.788;2022-12-05T18:43:02;0.43;75.65
66401;HTU21D;53211;45.040;38.788;2022-12-05T18:45:29;0.43;75.77
66401;HTU21D;53211;45.040;38.788;2022-12-05T18:47:55;0.44;75.61
66401;HTU21D;53211;45.040;38.788;2022-12-05T18:50:21;0.43;75.72
66401;HTU21D;53211;45.040;38.788;2022-12-05T18:52:49;0.43;75.90
66401;HTU21D;53211;45.040;38.788;2022-12-05T18:55:15;0.45;76.02
66401;HTU21D;53211;45.040;38.788;2022-12-05T18:57:42;0.45;75.84
66401;HTU21D;53211;45.040;38.788;2022-12-05T19:00:09;0.47;76.05
66401;HTU21D;53211;45.040;38.788;2022-12-05T19:02:35;0.47;76.37
66401;HTU21D;53211;45.040;38.788;2022-12-05T19:05:01;0.51;76.08
66401;HTU21D;53211;45.040;38.788;2022-12-05T19:07:27;0.51;75.95
66401;HTU21D;53211;45.040;38.788;2022-12-05T19:09:53;0.51;75.96
66401;HTU21D;53211;45.040;38.788;2022-12-05T19:12:19;0.49;75.86
66401;HTU21D;53211;45.040;38.788;2022-12-05T19:14:46;0.50;76.04
66401;HTU21D;53211;45.040;38.788;2022-12-05T19:17:12;0.50;75.98
66401;HTU21D;53211;45.040;38.788;2022-12-05T19:19:38;0.48;75.85
66401;HTU21D;53211;45.040;38.788;2022-12-05T19:22:04;0.47;75.70
66401;HTU21D;53211;45.040;38.788;2022-12-05T19:24:30;0.40;75.75
66401;HTU21D;53211;45.040;38.788;2022-12-05T19:26:56;0.36;75.78
66401;HTU21D;53211;45.040;38.788;2022-12-05T19:29:22;0.35;75.95
66401;HTU21D;53211;45.040;38.788;2022-12-05T19:31:48;0.30;75.83
66401;HTU21D;53211;45.040;38.788;2022-12-05T19:34:14;0.27;75.89
66401;HTU21D;53211;45.040;38.788;2022-12-05T19:36:42;0.22;75.89
66401;HTU21D;53211;45.040;38.788;2022-12-05T19:39:22;0.18;75.96
66401;HTU21D;53211;45.040;38.788;2022-12-05T19:42:00;0.17;75.96
66401;HTU21D;53211;45.040;38.788;2022-12-05T19:44:27;0.15;75.94
66401;HTU21D;53211;45.040;38.788;2022-12-05T19:46:54;0.12;76.08
66401;HTU21D;53211;45.040;38.788;2022-12-05T19:49:21;0.10;75.96
66401;HTU21D;53211;45.040;38.788;2022-12-05T19:51:47;0.06;76.00
66401;HTU21D;53211;45.040;38.788;2022-12-05T19:54:14;0.06;76.21
66401;HTU21D;53211;45.040;38.788;2022-12-05T19:56:43;0.07;76.24
66401;HTU21D;53211;45.040;38.788;2022-12-05T19:59:12;0.07;76.20
66401;HTU21D;53211;45.040;38.788;2022-12-05T20:01:39;0.10;76.15
66401;HTU21D;53211;45.040;38.788;2022-12-05T20:04:12;0.14;76.22
66401;HTU21D;53211;45.040;38.788;2022-12-05T20:06:49;0.19;76.09
66401;HTU21D;53211;45.040;38.788;2022-12-05T20:09:21;0.25;76.07
66401;HTU21D;53211;45.040;38.788;2022-12-05T20:11:49;0.31;76.00
66401;HTU21D;53211;45.040;38.788;2022-12-05T20:14:16;0.34;76.07